createdAt,value
2023-04-19T00:01:30.355Z,13.45
2023-04-19T00:03:57.313Z,16.02
2023-04-19T00:06:24.685Z,13.57
2023-04-19T00:08:51.716Z,14.93
2023-04-19T00:11:18.457Z,14.50
2023-04-19T00:13:45.462Z,14.25
2023-04-19T00:16:12.261Z,14.10
2023-04-19T00:18:39.219Z,15.25
2023-04-19T00:21:06.388Z,14.90
2023-04-19T00:23:33.083Z,14.23
2023-04-19T00:26:03.939Z,16.40
2023-04-19T00:28:31.096Z,14.97
2023-04-19T00:30:58.141Z,14.32
2023-04-19T00:33:24.922Z,14.52
2023-04-19T00:35:51.810Z,13.45
2023-04-19T00:38:18.698Z,15.23
2023-04-19T00:40:46.695Z,13.85
2023-04-19T00:43:20.343Z,13.80
2023-04-19T00:45:48.533Z,14.27
2023-04-19T00:48:15.564Z,14.52
2023-04-19T00:50:44.803Z,13.50
2023-04-19T00:53:11.840Z,12.55
2023-04-19T00:55:42.604Z,15.00
2023-04-19T00:58:09.894Z,17.95
2023-04-19T01:00:37.515Z,15.40
2023-04-19T01:03:04.571Z,17.92
2023-04-19T01:05:31.451Z,14.48
2023-04-19T01:07:58.229Z,17.48
2023-04-19T01:10:25.260Z,14.27
2023-04-19T01:12:52.000Z,16.45
2023-04-19T01:15:18.805Z,15.60
2023-04-19T01:17:45.864Z,17.50
2023-04-19T01:20:13.583Z,20.08
2023-04-19T01:22:40.441Z,16.40
2023-04-19T01:25:07.729Z,17.20
2023-04-19T01:27:34.604Z,16.80
2023-04-19T01:30:01.261Z,15.93
2023-04-19T01:32:28.084Z,14.98
2023-04-19T01:34:54.822Z,14.98
2023-04-19T01:37:21.625Z,17.05
2023-04-19T01:39:48.390Z,16.38
2023-04-19T01:42:15.213Z,19.27
2023-04-19T01:44:42.016Z,17.33
2023-04-19T01:47:08.779Z,17.08
2023-04-19T01:49:35.755Z,19.42
2023-04-19T01:52:02.498Z,16.58
2023-04-19T01:54:29.240Z,17.50
2023-04-19T01:56:55.964Z,15.25
2023-04-19T01:59:22.709Z,18.77
2023-04-19T02:01:49.444Z,16.67
2023-04-19T02:04:16.340Z,15.40
2023-04-19T02:06:43.262Z,16.38
2023-04-19T02:09:09.971Z,18.20
2023-04-19T02:11:36.736Z,16.48
2023-04-19T02:14:03.444Z,20.55
2023-04-19T02:16:30.258Z,18.88
2023-04-19T02:18:57.008Z,19.08
2023-04-19T02:21:23.720Z,19.20
2023-04-19T02:23:50.764Z,17.40
2023-04-19T02:26:17.432Z,19.38
2023-04-19T02:28:44.116Z,18.20
2023-04-19T02:31:11.031Z,18.50
2023-04-19T02:33:37.758Z,20.85
2023-04-19T02:36:04.712Z,17.55
2023-04-19T02:38:31.392Z,17.52
2023-04-19T02:40:58.107Z,19.05
2023-04-19T02:43:25.007Z,18.45
2023-04-19T02:45:51.797Z,21.63
2023-04-19T02:48:18.596Z,18.15
2023-04-19T02:50:45.386Z,20.08
2023-04-19T02:53:12.131Z,19.30
2023-04-19T02:55:38.859Z,20.45
2023-04-19T02:58:05.613Z,20.20
2023-04-19T03:00:32.451Z,17.67
2023-04-19T03:02:59.392Z,18.52
2023-04-19T03:05:26.343Z,19.17
2023-04-19T03:07:53.085Z,20.60
2023-04-19T03:10:19.891Z,18.08
2023-04-19T03:12:46.632Z,20.77
2023-04-19T03:15:13.401Z,20.02
2023-04-19T03:17:40.536Z,21.70
2023-04-19T03:20:14.221Z,18.98
2023-04-19T03:22:40.955Z,18.92
2023-04-19T03:25:08.624Z,19.80
2023-04-19T03:27:36.771Z,19.65
2023-04-19T03:30:03.741Z,20.85
2023-04-19T03:32:31.907Z,19.52
2023-04-19T03:34:58.594Z,19.45
2023-04-19T03:37:25.273Z,19.88
2023-04-19T03:39:52.016Z,19.58
2023-04-19T03:42:18.799Z,20.13
2023-04-19T03:44:45.715Z,20.05
2023-04-19T03:47:12.502Z,20.85
2023-04-19T03:49:39.279Z,20.02
2023-04-19T03:52:05.999Z,18.83
2023-04-19T03:54:32.683Z,19.50
2023-04-19T03:56:59.624Z,19.80
2023-04-19T03:59:26.498Z,18.85
2023-04-19T04:01:53.293Z,20.00
2023-04-19T04:04:20.311Z,18.95
2023-04-19T04:06:47.386Z,24.02
2023-04-19T04:09:14.063Z,17.58
2023-04-19T04:11:40.715Z,19.92
2023-04-19T04:14:07.494Z,20.25
2023-04-19T04:16:34.224Z,20.42
2023-04-19T04:19:01.015Z,19.48
2023-04-19T04:21:28.174Z,19.05
2023-04-19T04:23:54.947Z,18.75
2023-04-19T04:26:22.020Z,17.52
2023-04-19T04:28:48.692Z,18.98
2023-04-19T04:31:18.033Z,19.55
2023-04-19T04:33:45.911Z,19.42
2023-04-19T04:36:12.867Z,21.35
2023-04-19T04:38:39.615Z,18.60
2023-04-19T04:41:06.402Z,18.70
2023-04-19T04:43:34.638Z,19.67
2023-04-19T04:46:01.921Z,23.45
2023-04-19T04:48:28.780Z,18.23
2023-04-19T04:50:55.612Z,18.45
2023-04-19T04:53:22.362Z,18.25
2023-04-19T04:55:49.069Z,19.27
2023-04-19T04:58:15.861Z,18.80
2023-04-19T05:00:42.829Z,18.55
2023-04-19T05:03:09.688Z,20.42
2023-04-19T05:05:36.585Z,18.17
2023-04-19T05:08:03.619Z,17.17
2023-04-19T05:10:30.384Z,17.25
2023-04-19T05:12:57.104Z,19.23
2023-04-19T05:15:23.938Z,17.80
2023-04-19T05:17:50.736Z,17.92
2023-04-19T05:20:17.511Z,15.90
2023-04-19T05:22:44.256Z,16.70
2023-04-19T05:25:11.622Z,16.70
2023-04-19T05:27:38.446Z,16.92
2023-04-19T05:30:06.618Z,15.23
2023-04-19T05:32:33.582Z,16.48
2023-04-19T05:35:00.339Z,17.83
2023-04-19T05:37:27.121Z,16.38
2023-04-19T05:39:53.824Z,17.75
2023-04-19T05:42:20.602Z,17.90
2023-04-19T05:44:47.331Z,18.20
2023-04-19T05:47:14.080Z,17.88
2023-04-19T05:49:42.024Z,17.52
2023-04-19T05:52:09.873Z,16.95
2023-04-19T05:54:36.675Z,16.65
2023-04-19T05:57:03.836Z,18.90
2023-04-19T05:59:30.678Z,15.15
2023-04-19T06:01:57.670Z,20.10
2023-04-19T06:04:25.038Z,15.77
2023-04-19T06:06:51.907Z,15.02
2023-04-19T06:09:18.759Z,14.32
2023-04-19T06:11:50.891Z,19.95
2023-04-19T06:14:18.635Z,17.25
2023-04-19T06:16:45.816Z,13.90
2023-04-19T06:19:12.570Z,13.98
2023-04-19T06:21:39.374Z,15.93
2023-04-19T06:24:07.386Z,12.55
2023-04-19T06:26:34.135Z,15.48
2023-04-19T06:29:01.268Z,13.38
2023-04-19T06:31:28.049Z,14.85
2023-04-19T06:33:54.819Z,15.55
2023-04-19T06:36:21.601Z,14.95
2023-04-19T06:38:49.928Z,14.77
2023-04-19T06:41:16.932Z,14.88
2023-04-19T06:43:44.744Z,17.67
2023-04-19T06:46:13.843Z,16.67
2023-04-19T06:48:40.964Z,13.23
2023-04-19T06:51:07.939Z,14.50
2023-04-19T06:53:35.697Z,14.70
2023-04-19T06:56:04.461Z,14.20
2023-04-19T06:58:35.380Z,15.05
2023-04-19T07:01:04.483Z,13.50
2023-04-19T07:03:31.899Z,14.70
2023-04-19T07:05:58.899Z,15.20
2023-04-19T07:08:32.262Z,13.50
2023-04-19T07:11:02.088Z,12.63
2023-04-19T07:13:28.809Z,12.23
2023-04-19T07:15:55.618Z,13.77
2023-04-19T07:18:22.379Z,15.27
2023-04-19T07:20:49.459Z,14.88
2023-04-19T07:23:16.323Z,15.40
2023-04-19T07:25:43.118Z,16.17
2023-04-19T07:28:09.926Z,12.65
2023-04-19T07:30:37.509Z,12.20
2023-04-19T07:33:04.980Z,14.52
2023-04-19T07:35:31.754Z,12.30
2023-04-19T07:37:58.479Z,15.57
2023-04-19T07:40:25.320Z,11.68
2023-04-19T07:42:52.038Z,10.90
2023-04-19T07:45:18.846Z,12.10
2023-04-19T07:47:45.684Z,11.63
2023-04-19T07:50:12.557Z,13.43
2023-04-19T07:52:39.503Z,12.63
2023-04-19T07:55:06.976Z,12.50
2023-04-19T07:57:35.468Z,10.60
2023-04-19T08:00:02.344Z,11.38
2023-04-19T08:02:29.142Z,12.40
2023-04-19T08:04:57.805Z,11.98
2023-04-19T08:07:26.102Z,13.43
2023-04-19T08:09:53.180Z,10.30
2023-04-19T08:12:34.511Z,12.10
2023-04-19T08:15:15.407Z,10.50
2023-04-19T08:17:54.590Z,12.50
2023-04-19T08:20:21.818Z,12.73
2023-04-19T08:22:48.575Z,11.80
2023-04-19T08:25:16.518Z,11.98
2023-04-19T08:27:43.290Z,12.77
2023-04-19T08:30:10.954Z,10.70
2023-04-19T08:32:38.075Z,11.57
2023-04-19T08:35:06.036Z,12.57
2023-04-19T08:37:32.724Z,10.00
2023-04-19T08:39:59.443Z,11.70
2023-04-19T08:42:35.656Z,10.18
2023-04-19T08:47:51.771Z,9.68
2023-04-19T08:50:32.473Z,10.20
2023-04-19T08:53:12.212Z,10.75
2023-04-19T08:56:07.021Z,8.73
2023-04-19T09:01:06.804Z,11.10
2023-04-19T09:03:44.023Z,8.55
2023-04-19T09:06:18.611Z,6.57
2023-04-19T09:08:45.556Z,8.30
2023-04-19T09:11:12.314Z,7.45
2023-04-19T09:13:40.551Z,9.02
2023-04-19T09:16:22.639Z,9.05
2023-04-19T09:19:05.469Z,8.32
2023-04-19T09:21:42.426Z,10.93
2023-04-19T09:24:09.236Z,7.57
2023-04-19T09:26:36.611Z,7.07
2023-04-19T09:29:05.430Z,7.68
2023-04-19T09:31:50.806Z,5.93
2023-04-19T09:34:19.823Z,6.78
2023-04-19T09:36:46.984Z,8.93
2023-04-19T09:39:14.601Z,6.57
2023-04-19T09:41:54.838Z,8.32
2023-04-19T09:44:53.074Z,6.18
2023-04-19T09:47:28.839Z,10.20
2023-04-19T09:50:21.764Z,9.07
2023-04-19T09:52:51.045Z,6.65
2023-04-19T09:57:48.547Z,8.23
2023-04-19T10:00:15.776Z,6.43
2023-04-19T10:02:43.568Z,8.02
2023-04-19T10:05:20.556Z,9.27
2023-04-19T10:07:49.511Z,6.88
2023-04-19T10:10:20.833Z,6.15
2023-04-19T10:13:11.463Z,7.05
2023-04-19T10:18:09.001Z,5.95
2023-04-19T10:20:45.893Z,8.05
2023-04-19T10:23:13.044Z,5.90
2023-04-19T10:25:39.753Z,4.88
2023-04-19T10:28:06.527Z,4.50
2023-04-19T10:30:33.402Z,6.70
2023-04-19T10:33:02.947Z,6.35
2023-04-19T10:35:38.292Z,4.38
2023-04-19T10:38:11.211Z,4.60
2023-04-19T10:40:56.995Z,5.38
2023-04-19T10:43:25.201Z,3.97
2023-04-19T10:45:52.770Z,5.07
2023-04-19T10:48:33.240Z,5.25
2023-04-19T10:51:03.662Z,5.95
2023-04-19T10:53:45.647Z,7.15
2023-04-19T10:56:12.702Z,3.13
2023-04-19T10:59:07.944Z,3.78
2023-04-19T11:01:43.468Z,4.22
2023-04-19T11:04:10.623Z,4.03
2023-04-19T11:06:39.153Z,5.97
2023-04-19T11:09:07.242Z,9.98
2023-04-19T11:11:35.809Z,3.80
2023-04-19T11:14:04.345Z,3.85
2023-04-19T11:16:44.872Z,3.10
2023-04-19T11:19:19.826Z,4.07
2023-04-19T11:21:47.272Z,4.50
2023-04-19T11:24:18.967Z,3.50
2023-04-19T11:26:47.138Z,5.82
2023-04-19T11:29:14.246Z,3.90
2023-04-19T11:31:44.124Z,4.18
2023-04-19T11:34:10.898Z,6.90
2023-04-19T11:36:51.301Z,3.47
2023-04-19T11:39:18.616Z,3.45
2023-04-19T11:41:47.202Z,7.45
2023-04-19T11:44:15.956Z,4.30
2023-04-19T11:46:43.871Z,4.53
2023-04-19T11:49:10.749Z,4.15
2023-04-19T11:51:42.379Z,3.50
2023-04-19T11:57:01.553Z,6.00
2023-04-19T11:59:29.118Z,4.82
2023-04-19T12:01:55.970Z,6.57
2023-04-19T12:04:23.451Z,4.20
2023-04-19T12:07:01.330Z,3.97
2023-04-19T12:09:28.131Z,8.98
2023-04-19T12:11:55.022Z,7.10
2023-04-19T12:14:23.274Z,4.65
2023-04-19T12:17:13.719Z,3.97
2023-04-19T12:19:47.687Z,4.93
2023-04-19T12:22:16.581Z,5.60
2023-04-19T12:24:43.649Z,5.15
2023-04-19T12:27:11.325Z,5.30
2023-04-19T12:29:39.064Z,7.80
2023-04-19T12:32:06.563Z,3.30
2023-04-19T12:34:33.412Z,4.57
2023-04-19T12:37:01.101Z,5.07
2023-04-19T12:39:28.838Z,2.97
2023-04-19T12:41:56.056Z,7.75
2023-04-19T12:44:23.283Z,4.18
2023-04-19T12:46:50.125Z,4.78
2023-04-19T12:49:20.271Z,3.38
2023-04-19T12:51:47.574Z,4.90
2023-04-19T12:54:15.260Z,4.40
2023-04-19T12:56:42.114Z,6.68
2023-04-19T12:59:08.859Z,7.10
2023-04-19T13:01:35.710Z,5.95
2023-04-19T13:04:03.052Z,5.28
2023-04-19T13:06:30.056Z,4.20
2023-04-19T13:09:00.447Z,5.30
2023-04-19T13:11:28.373Z,4.93
2023-04-19T13:13:55.201Z,5.50
2023-04-19T13:16:22.582Z,4.07
2023-04-19T13:18:50.848Z,3.90
2023-04-19T13:21:17.544Z,4.18
2023-04-19T13:23:45.069Z,3.00
2023-04-19T13:26:12.029Z,7.82
2023-04-19T13:28:39.775Z,7.53
2023-04-19T13:31:06.525Z,4.07
2023-04-19T13:33:33.420Z,7.22
2023-04-19T13:36:00.409Z,8.60
2023-04-19T13:38:27.158Z,4.07
2023-04-19T13:40:53.867Z,6.30
2023-04-19T13:43:21.406Z,6.40
2023-04-19T13:45:48.212Z,4.80
2023-04-19T13:48:14.959Z,4.35
2023-04-19T13:50:41.679Z,4.53
2023-04-19T13:53:08.560Z,4.85
2023-04-19T13:55:35.437Z,7.07
2023-04-19T13:58:02.172Z,4.63
2023-04-19T14:00:29.028Z,4.95
2023-04-19T14:02:56.897Z,6.03
2023-04-19T14:05:23.820Z,5.22
2023-04-19T14:07:50.564Z,4.78
2023-04-19T14:10:17.405Z,5.80
2023-04-19T14:12:45.016Z,4.65
2023-04-19T14:15:12.307Z,5.75
2023-04-19T14:17:39.181Z,8.18
2023-04-19T14:20:07.586Z,5.97
2023-04-19T14:22:35.406Z,8.23
2023-04-19T14:25:03.669Z,6.03
2023-04-19T14:27:30.637Z,5.30
2023-04-19T14:29:57.451Z,4.32
2023-04-19T14:32:26.523Z,4.53
2023-04-19T14:34:55.187Z,15.80
2023-04-19T14:37:23.348Z,4.07
2023-04-19T14:39:50.164Z,6.50
2023-04-19T14:42:16.943Z,5.30
2023-04-19T14:44:43.938Z,6.18
2023-04-19T14:47:10.980Z,7.00
2023-04-19T14:49:37.762Z,5.75
2023-04-19T14:52:04.973Z,5.00
2023-04-19T14:54:31.708Z,6.38
2023-04-19T14:56:58.417Z,4.93
2023-04-19T14:59:25.302Z,4.82
2023-04-19T15:01:52.131Z,5.15
2023-04-19T15:04:19.170Z,5.65
2023-04-19T15:06:46.226Z,4.65
2023-04-19T15:09:13.116Z,7.18
2023-04-19T15:11:39.846Z,5.47
2023-04-19T15:14:06.645Z,6.10
2023-04-19T15:16:33.607Z,5.90
2023-04-19T15:19:02.043Z,6.40
2023-04-19T15:21:29.256Z,4.85
2023-04-19T15:23:55.985Z,10.93
2023-04-19T15:26:23.745Z,4.53
2023-04-19T15:28:50.438Z,6.65
2023-04-19T15:31:17.564Z,5.57
2023-04-19T15:33:44.354Z,4.70
2023-04-19T15:36:11.131Z,4.72
2023-04-19T15:38:38.073Z,5.22
2023-04-19T15:41:05.161Z,5.38
2023-04-19T15:43:31.982Z,3.50
2023-04-19T15:45:58.721Z,5.93
2023-04-19T15:48:26.110Z,7.05
2023-04-19T15:50:52.824Z,6.47
2023-04-19T15:53:19.516Z,4.25
2023-04-19T15:55:47.974Z,4.43
2023-04-19T15:58:15.212Z,6.03
2023-04-19T16:00:41.924Z,4.38
2023-04-19T16:03:11.608Z,4.55
2023-04-19T16:05:38.539Z,7.70
2023-04-19T16:08:07.764Z,5.68
2023-04-19T16:10:34.975Z,6.75
2023-04-19T16:13:03.409Z,4.03
2023-04-19T16:15:30.372Z,5.43
2023-04-19T16:17:57.137Z,6.03
2023-04-19T16:20:24.106Z,5.40
2023-04-19T16:22:50.884Z,5.78
2023-04-19T16:25:17.761Z,5.28
2023-04-19T16:27:45.823Z,5.05
2023-04-19T16:30:14.577Z,5.18
2023-04-19T16:32:42.001Z,6.45
2023-04-19T16:35:09.496Z,7.93
2023-04-19T16:37:36.499Z,6.38
2023-04-19T16:40:09.758Z,4.88
2023-04-19T16:42:38.253Z,6.90
2023-04-19T16:45:06.222Z,5.78
2023-04-19T16:47:33.646Z,7.38
2023-04-19T16:50:01.259Z,7.22
2023-04-19T16:52:29.777Z,8.18
2023-04-19T16:54:56.571Z,7.15
2023-04-19T16:57:23.735Z,6.82
2023-04-19T16:59:50.780Z,7.18
2023-04-19T17:02:17.979Z,7.63
2023-04-19T17:04:44.902Z,7.55
2023-04-19T17:07:12.448Z,8.38
2023-04-19T17:09:39.278Z,9.40
2023-04-19T17:12:06.377Z,7.95
2023-04-19T17:14:35.170Z,6.47
2023-04-19T17:17:02.018Z,8.35
2023-04-19T17:19:28.834Z,8.52
2023-04-19T17:21:55.716Z,6.65
2023-04-19T17:24:22.548Z,9.55
2023-04-19T17:26:50.037Z,10.88
2023-04-19T17:29:17.058Z,10.10
2023-04-19T17:31:44.042Z,7.68
2023-04-19T17:34:11.036Z,6.97
2023-04-19T17:36:37.761Z,8.48
2023-04-19T17:39:06.526Z,12.32
2023-04-19T17:41:33.564Z,7.40
2023-04-19T17:44:00.506Z,7.57
2023-04-19T17:46:27.310Z,10.00
2023-04-19T17:48:55.428Z,9.80
2023-04-19T17:51:22.501Z,7.90
2023-04-19T17:53:49.276Z,9.07
2023-04-19T17:56:16.035Z,7.65
2023-04-19T17:58:42.857Z,8.85
2023-04-19T18:01:10.487Z,10.23
2023-04-19T18:03:37.921Z,11.02
2023-04-19T18:06:04.962Z,11.25
2023-04-19T18:08:31.722Z,9.32
2023-04-19T18:10:58.723Z,8.00
2023-04-19T18:13:25.718Z,11.43
2023-04-19T18:15:52.537Z,7.57
2023-04-19T18:18:19.322Z,8.95
2023-04-19T18:20:46.062Z,9.80
2023-04-19T18:23:12.804Z,7.75
2023-04-19T18:25:39.691Z,12.85
2023-04-19T18:28:06.655Z,11.63
2023-04-19T18:30:33.800Z,8.93
2023-04-19T18:33:00.676Z,8.50
2023-04-19T18:35:27.521Z,8.88
2023-04-19T18:37:54.244Z,8.68
2023-04-19T18:40:21.105Z,10.32
2023-04-19T18:42:47.889Z,7.47
2023-04-19T18:45:15.065Z,11.57
2023-04-19T18:47:41.981Z,7.97
2023-04-19T18:50:09.545Z,7.22
2023-04-19T18:52:37.452Z,8.93
2023-04-19T18:55:05.846Z,9.02
2023-04-19T18:57:34.909Z,7.93
2023-04-19T19:00:02.655Z,7.53
2023-04-19T19:02:29.615Z,8.30
2023-04-19T19:05:01.350Z,10.77
2023-04-19T19:10:01.673Z,13.73
2023-04-19T19:12:29.131Z,8.45
2023-04-19T19:14:56.037Z,7.43
2023-04-19T19:17:24.313Z,6.95
2023-04-19T19:19:51.283Z,8.13
2023-04-19T19:22:27.836Z,8.85
2023-04-19T19:24:55.472Z,9.77
2023-04-19T19:27:22.304Z,6.68
2023-04-19T19:29:49.112Z,8.07
2023-04-19T19:32:16.090Z,7.57
2023-04-19T19:34:53.839Z,7.18
2023-04-19T19:37:22.113Z,7.95
2023-04-19T19:39:49.047Z,6.38
2023-04-19T19:42:16.802Z,6.90
2023-04-19T19:44:43.839Z,9.15
2023-04-19T19:47:11.310Z,7.22
2023-04-19T19:52:08.037Z,6.25
2023-04-19T19:54:34.872Z,6.10
2023-04-19T19:59:34.872Z,6.30
2023-04-19T20:02:03.685Z,6.38
2023-04-19T20:04:31.702Z,9.95
2023-04-19T20:09:28.346Z,5.07
2023-04-19T20:11:55.135Z,8.07
2023-04-19T20:14:23.751Z,9.70
2023-04-19T20:16:51.821Z,7.95
2023-04-19T20:19:19.425Z,10.40
2023-04-19T20:21:47.074Z,8.70
2023-04-19T20:24:14.052Z,8.00
2023-04-19T20:26:40.889Z,6.18
2023-04-19T20:29:07.885Z,8.73
2023-04-19T20:31:34.671Z,8.13
2023-04-19T20:34:01.447Z,8.00
2023-04-19T20:36:28.421Z,6.93
2023-04-19T20:38:56.951Z,13.85
2023-04-19T20:41:23.680Z,8.88
2023-04-19T20:43:50.754Z,10.07
2023-04-19T20:46:17.577Z,6.97
2023-04-19T20:48:44.326Z,9.73
2023-04-19T20:51:12.731Z,9.07
2023-04-19T20:53:39.439Z,8.52
2023-04-19T20:56:06.183Z,7.38
2023-04-19T20:58:33.683Z,12.82
2023-04-19T21:01:00.683Z,6.47
2023-04-19T21:03:27.701Z,8.60
2023-04-19T21:05:54.553Z,8.13
2023-04-19T21:08:23.450Z,7.60
2023-04-19T21:10:50.219Z,8.02
2023-04-19T21:13:16.898Z,7.10
2023-04-19T21:15:43.615Z,5.63
2023-04-19T21:18:10.366Z,8.32
2023-04-19T21:20:37.801Z,6.95
2023-04-19T21:23:04.568Z,6.43
2023-04-19T21:25:31.479Z,6.60
2023-04-19T21:27:58.199Z,6.40
2023-04-19T21:30:25.687Z,5.13
2023-04-19T21:32:52.931Z,7.35
2023-04-19T21:35:19.948Z,7.18
2023-04-19T21:37:46.733Z,6.13
2023-04-19T21:40:13.622Z,8.07
2023-04-19T21:42:40.504Z,5.32
2023-04-19T21:45:07.734Z,6.22
2023-04-19T21:47:34.605Z,7.35
2023-04-19T21:50:01.468Z,6.82
2023-04-19T21:52:28.213Z,7.75
2023-04-19T21:54:55.028Z,5.90
2023-04-19T21:57:25.252Z,5.57
2023-04-19T21:59:51.969Z,8.65
2023-04-19T22:02:18.968Z,7.57
2023-04-19T22:04:45.772Z,4.63
2023-04-19T22:07:12.571Z,6.50
2023-04-19T22:09:39.854Z,6.90
2023-04-19T22:12:06.897Z,6.50
2023-04-19T22:14:33.672Z,5.18
2023-04-19T22:17:02.518Z,10.13
2023-04-19T22:19:29.624Z,9.20
2023-04-19T22:21:56.838Z,6.35
2023-04-19T22:24:23.764Z,4.80
2023-04-19T22:26:50.891Z,5.85
2023-04-19T22:29:18.101Z,9.20
2023-04-19T22:31:45.166Z,4.47
2023-04-19T22:34:11.946Z,10.48
2023-04-19T22:36:38.678Z,8.73
2023-04-19T22:39:05.516Z,6.55
2023-04-19T22:41:33.428Z,6.15
2023-04-19T22:44:00.479Z,9.13
2023-04-19T22:46:27.515Z,7.32
2023-04-19T22:48:56.031Z,5.30
2023-04-19T22:51:24.429Z,8.52
2023-04-19T22:53:51.207Z,6.88
2023-04-19T22:56:17.955Z,6.88
2023-04-19T22:58:44.792Z,7.47
2023-04-19T23:01:11.547Z,7.15
2023-04-19T23:03:38.448Z,6.55
2023-04-19T23:06:05.306Z,7.40
2023-04-19T23:08:33.346Z,4.53
2023-04-19T23:11:00.407Z,7.38
2023-04-19T23:13:28.459Z,5.57
2023-04-19T23:15:55.227Z,4.75
2023-04-19T23:18:22.071Z,4.45
2023-04-19T23:20:48.773Z,7.47
2023-04-19T23:23:15.577Z,7.55
2023-04-19T23:25:42.546Z,6.35
2023-04-19T23:28:11.910Z,6.10
2023-04-19T23:30:39.311Z,5.32
2023-04-19T23:33:06.248Z,6.20
2023-04-19T23:35:33.091Z,5.22
2023-04-19T23:38:00.302Z,9.20
2023-04-19T23:40:27.063Z,5.75
2023-04-19T23:42:53.752Z,9.50
2023-04-19T23:45:20.800Z,5.85
2023-04-19T23:47:47.641Z,5.80
2023-04-19T23:50:14.385Z,4.55
2023-04-19T23:52:41.222Z,4.90
2023-04-19T23:55:08.251Z,5.18
2023-04-19T23:57:35.828Z,6.50
